sensor_id;sensor_type;location;lat;lon;timestamp;P1;durP1;ratioP1;P2;durP2;ratioP2
36653;SDS011;22650;49.350;20.898;2023-06-14T00:01:27;5.32;;;3.28;;
36653;SDS011;22650;49.350;20.898;2023-06-14T00:04:01;7.25;;;3.85;;
36653;SDS011;22650;49.350;20.898;2023-06-14T00:06:36;4.78;;;3.38;;
36653;SDS011;22650;49.350;20.898;2023-06-14T00:09:10;4.70;;;3.35;;
36653;SDS011;22650;49.350;20.898;2023-06-14T00:11:44;7.15;;;3.92;;
36653;SDS011;22650;49.350;20.898;2023-06-14T00:14:18;6.95;;;4.25;;
36653;SDS011;22650;49.350;20.898;2023-06-14T00:16:53;7.50;;;3.90;;
36653;SDS011;22650;49.350;20.898;2023-06-14T00:19:30;6.35;;;3.80;;
36653;SDS011;22650;49.350;20.898;2023-06-14T00:22:06;6.30;;;4.05;;
36653;SDS011;22650;49.350;20.898;2023-06-14T00:24:41;7.45;;;3.53;;
36653;SDS011;22650;49.350;20.898;2023-06-14T00:27:15;5.75;;;4.20;;
36653;SDS011;22650;49.350;20.898;2023-06-14T00:29:48;5.65;;;3.53;;
36653;SDS011;22650;49.350;20.898;2023-06-14T00:32:23;6.43;;;4.22;;
36653;SDS011;22650;49.350;20.898;2023-06-14T00:35:00;8.85;;;4.28;;
36653;SDS011;22650;49.350;20.898;2023-06-14T00:37:33;6.18;;;4.03;;
36653;SDS011;22650;49.350;20.898;2023-06-14T00:40:07;7.78;;;4.40;;
36653;SDS011;22650;49.350;20.898;2023-06-14T00:42:41;6.22;;;4.22;;
36653;SDS011;22650;49.350;20.898;2023-06-14T00:45:15;6.70;;;4.35;;
36653;SDS011;22650;49.350;20.898;2023-06-14T00:47:50;8.63;;;4.97;;
36653;SDS011;22650;49.350;20.898;2023-06-14T00:50:27;8.20;;;4.47;;
36653;SDS011;22650;49.350;20.898;2023-06-14T00:53:03;7.28;;;4.20;;
36653;SDS011;22650;49.350;20.898;2023-06-14T00:55:37;6.78;;;4.00;;
36653;SDS011;22650;49.350;20.898;2023-06-14T00:58:11;7.72;;;4.35;;
36653;SDS011;22650;49.350;20.898;2023-06-14T01:00:46;9.88;;;4.75;;
36653;SDS011;22650;49.350;20.898;2023-06-14T01:03:21;9.15;;;5.28;;
36653;SDS011;22650;49.350;20.898;2023-06-14T01:05:57;10.68;;;4.60;;
36653;SDS011;22650;49.350;20.898;2023-06-14T01:08:40;8.90;;;5.07;;
36653;SDS011;22650;49.350;20.898;2023-06-14T01:11:22;8.82;;;4.50;;
36653;SDS011;22650;49.350;20.898;2023-06-14T01:14:00;9.30;;;4.78;;
36653;SDS011;22650;49.350;20.898;2023-06-14T01:16:35;8.13;;;5.03;;
36653;SDS011;22650;49.350;20.898;2023-06-14T01:19:13;8.48;;;5.25;;
36653;SDS011;22650;49.350;20.898;2023-06-14T01:21:48;9.82;;;4.97;;
36653;SDS011;22650;49.350;20.898;2023-06-14T01:24:24;8.15;;;4.60;;
36653;SDS011;22650;49.350;20.898;2023-06-14T01:27:04;6.97;;;4.38;;
36653;SDS011;22650;49.350;20.898;2023-06-14T01:29:38;9.13;;;4.95;;
36653;SDS011;22650;49.350;20.898;2023-06-14T01:32:19;5.72;;;3.95;;
36653;SDS011;22650;49.350;20.898;2023-06-14T01:34:53;6.75;;;4.60;;
36653;SDS011;22650;49.350;20.898;2023-06-14T01:37:26;9.18;;;5.15;;
36653;SDS011;22650;49.350;20.898;2023-06-14T01:40:02;10.90;;;4.82;;
36653;SDS011;22650;49.350;20.898;2023-06-14T01:42:39;10.75;;;5.68;;
36653;SDS011;22650;49.350;20.898;2023-06-14T01:45:14;10.10;;;5.75;;
36653;SDS011;22650;49.350;20.898;2023-06-14T01:47:49;7.65;;;4.07;;
36653;SDS011;22650;49.350;20.898;2023-06-14T01:50:23;10.13;;;5.25;;
36653;SDS011;22650;49.350;20.898;2023-06-14T01:53:01;9.50;;;5.53;;
36653;SDS011;22650;49.350;20.898;2023-06-14T01:55:36;10.18;;;6.30;;
36653;SDS011;22650;49.350;20.898;2023-06-14T01:58:15;9.73;;;5.80;;
36653;SDS011;22650;49.350;20.898;2023-06-14T02:00:49;10.25;;;5.55;;
36653;SDS011;22650;49.350;20.898;2023-06-14T02:03:22;11.38;;;6.63;;
36653;SDS011;22650;49.350;20.898;2023-06-14T02:05:57;12.73;;;6.60;;
36653;SDS011;22650;49.350;20.898;2023-06-14T02:08:30;11.70;;;6.55;;
36653;SDS011;22650;49.350;20.898;2023-06-14T02:11:06;8.45;;;5.45;;
36653;SDS011;22650;49.350;20.898;2023-06-14T02:13:39;9.15;;;5.40;;
36653;SDS011;22650;49.350;20.898;2023-06-14T02:16:13;9.82;;;5.85;;
36653;SDS011;22650;49.350;20.898;2023-06-14T02:18:49;14.88;;;6.18;;
36653;SDS011;22650;49.350;20.898;2023-06-14T02:21:22;18.27;;;5.47;;
36653;SDS011;22650;49.350;20.898;2023-06-14T02:23:56;11.73;;;5.85;;
36653;SDS011;22650;49.350;20.898;2023-06-14T02:26:33;14.57;;;6.68;;
36653;SDS011;22650;49.350;20.898;2023-06-14T02:29:07;13.73;;;6.25;;
36653;SDS011;22650;49.350;20.898;2023-06-14T02:31:42;16.50;;;6.93;;
36653;SDS011;22650;49.350;20.898;2023-06-14T02:34:18;14.32;;;6.20;;
36653;SDS011;22650;49.350;20.898;2023-06-14T02:36:53;11.68;;;6.07;;
36653;SDS011;22650;49.350;20.898;2023-06-14T02:39:27;9.73;;;5.90;;
36653;SDS011;22650;49.350;20.898;2023-06-14T02:42:02;10.60;;;6.30;;
36653;SDS011;22650;49.350;20.898;2023-06-14T02:44:35;15.48;;;5.97;;
36653;SDS011;22650;49.350;20.898;2023-06-14T02:47:09;14.68;;;6.40;;
36653;SDS011;22650;49.350;20.898;2023-06-14T02:49:42;10.85;;;5.88;;
36653;SDS011;22650;49.350;20.898;2023-06-14T02:52:19;10.77;;;6.63;;
36653;SDS011;22650;49.350;20.898;2023-06-14T02:54:53;9.43;;;6.20;;
36653;SDS011;22650;49.350;20.898;2023-06-14T02:57:28;11.38;;;6.68;;
36653;SDS011;22650;49.350;20.898;2023-06-14T03:00:02;11.50;;;6.28;;
36653;SDS011;22650;49.350;20.898;2023-06-14T03:02:39;11.65;;;6.55;;
36653;SDS011;22650;49.350;20.898;2023-06-14T03:05:14;11.65;;;6.28;;
36653;SDS011;22650;49.350;20.898;2023-06-14T03:07:48;14.93;;;7.18;;
36653;SDS011;22650;49.350;20.898;2023-06-14T03:10:23;16.02;;;6.45;;
36653;SDS011;22650;49.350;20.898;2023-06-14T03:13:02;9.00;;;5.50;;
36653;SDS011;22650;49.350;20.898;2023-06-14T03:15:35;11.23;;;6.80;;
36653;SDS011;22650;49.350;20.898;2023-06-14T03:18:10;11.43;;;6.00;;
36653;SDS011;22650;49.350;20.898;2023-06-14T03:20:44;16.10;;;8.77;;
36653;SDS011;22650;49.350;20.898;2023-06-14T03:23:18;15.88;;;8.20;;
36653;SDS011;22650;49.350;20.898;2023-06-14T03:25:53;16.63;;;7.88;;
36653;SDS011;22650;49.350;20.898;2023-06-14T03:28:29;16.30;;;7.88;;
36653;SDS011;22650;49.350;20.898;2023-06-14T03:31:03;14.30;;;8.82;;
36653;SDS011;22650;49.350;20.898;2023-06-14T03:33:37;15.73;;;8.55;;
36653;SDS011;22650;49.350;20.898;2023-06-14T03:36:12;17.80;;;8.25;;
36653;SDS011;22650;49.350;20.898;2023-06-14T03:38:45;12.75;;;6.78;;
36653;SDS011;22650;49.350;20.898;2023-06-14T03:41:21;12.82;;;6.85;;
36653;SDS011;22650;49.350;20.898;2023-06-14T03:43:57;12.63;;;6.57;;
36653;SDS011;22650;49.350;20.898;2023-06-14T03:46:30;12.88;;;7.85;;
36653;SDS011;22650;49.350;20.898;2023-06-14T03:49:05;16.67;;;7.55;;
36653;SDS011;22650;49.350;20.898;2023-06-14T03:51:39;15.40;;;7.85;;
36653;SDS011;22650;49.350;20.898;2023-06-14T03:54:13;12.82;;;7.40;;
36653;SDS011;22650;49.350;20.898;2023-06-14T03:56:50;19.73;;;8.20;;
36653;SDS011;22650;49.350;20.898;2023-06-14T03:59:25;12.57;;;6.63;;
36653;SDS011;22650;49.350;20.898;2023-06-14T04:01:59;16.50;;;7.97;;
36653;SDS011;22650;49.350;20.898;2023-06-14T04:04:32;13.98;;;7.60;;
36653;SDS011;22650;49.350;20.898;2023-06-14T04:07:08;13.52;;;7.53;;
36653;SDS011;22650;49.350;20.898;2023-06-14T04:09:43;13.88;;;7.05;;
36653;SDS011;22650;49.350;20.898;2023-06-14T04:12:16;15.27;;;7.18;;
36653;SDS011;22650;49.350;20.898;2023-06-14T04:14:51;13.85;;;7.25;;
36653;SDS011;22650;49.350;20.898;2023-06-14T04:17:29;9.73;;;5.63;;
36653;SDS011;22650;49.350;20.898;2023-06-14T04:20:05;13.57;;;7.50;;
36653;SDS011;22650;49.350;20.898;2023-06-14T04:22:41;14.35;;;7.00;;
36653;SDS011;22650;49.350;20.898;2023-06-14T04:25:16;13.32;;;6.97;;
36653;SDS011;22650;49.350;20.898;2023-06-14T04:27:55;11.13;;;6.80;;
36653;SDS011;22650;49.350;20.898;2023-06-14T04:30:30;14.48;;;6.93;;
36653;SDS011;22650;49.350;20.898;2023-06-14T04:33:04;13.82;;;7.13;;
36653;SDS011;22650;49.350;20.898;2023-06-14T04:35:38;13.13;;;7.30;;
36653;SDS011;22650;49.350;20.898;2023-06-14T04:38:12;15.88;;;7.32;;
36653;SDS011;22650;49.350;20.898;2023-06-14T04:40:47;12.32;;;6.38;;
36653;SDS011;22650;49.350;20.898;2023-06-14T04:43:25;13.27;;;6.15;;
36653;SDS011;22650;49.350;20.898;2023-06-14T04:46:03;18.55;;;8.35;;
36653;SDS011;22650;49.350;20.898;2023-06-14T04:48:42;21.35;;;8.45;;
36653;SDS011;22650;49.350;20.898;2023-06-14T04:51:17;21.60;;;12.45;;
36653;SDS011;22650;49.350;20.898;2023-06-14T04:53:52;19.75;;;9.27;;
36653;SDS011;22650;49.350;20.898;2023-06-14T04:56:29;19.65;;;8.20;;
36653;SDS011;22650;49.350;20.898;2023-06-14T04:59:03;14.55;;;8.05;;
36653;SDS011;22650;49.350;20.898;2023-06-14T05:01:38;13.13;;;7.72;;
36653;SDS011;22650;49.350;20.898;2023-06-14T05:04:12;12.80;;;6.97;;
36653;SDS011;22650;49.350;20.898;2023-06-14T05:06:46;11.55;;;7.05;;
36653;SDS011;22650;49.350;20.898;2023-06-14T05:09:20;10.98;;;6.05;;
36653;SDS011;22650;49.350;20.898;2023-06-14T05:11:54;10.60;;;6.78;;
36653;SDS011;22650;49.350;20.898;2023-06-14T05:14:30;11.02;;;6.15;;
36653;SDS011;22650;49.350;20.898;2023-06-14T05:17:06;12.70;;;6.80;;
36653;SDS011;22650;49.350;20.898;2023-06-14T05:19:41;10.93;;;6.28;;
36653;SDS011;22650;49.350;20.898;2023-06-14T05:22:14;11.35;;;6.15;;
36653;SDS011;22650;49.350;20.898;2023-06-14T05:24:48;16.52;;;6.82;;
36653;SDS011;22650;49.350;20.898;2023-06-14T05:27:22;13.55;;;6.57;;
36653;SDS011;22650;49.350;20.898;2023-06-14T05:29:56;11.50;;;5.25;;
36653;SDS011;22650;49.350;20.898;2023-06-14T05:32:32;10.65;;;5.57;;
36653;SDS011;22650;49.350;20.898;2023-06-14T05:35:06;13.32;;;5.63;;
36653;SDS011;22650;49.350;20.898;2023-06-14T05:37:40;9.40;;;5.80;;
36653;SDS011;22650;49.350;20.898;2023-06-14T05:40:13;12.63;;;6.13;;
36653;SDS011;22650;49.350;20.898;2023-06-14T05:42:48;10.75;;;5.57;;
36653;SDS011;22650;49.350;20.898;2023-06-14T05:45:23;9.02;;;4.80;;
36653;SDS011;22650;49.350;20.898;2023-06-14T05:47:58;8.18;;;4.70;;
36653;SDS011;22650;49.350;20.898;2023-06-14T05:50:31;8.60;;;5.47;;
36653;SDS011;22650;49.350;20.898;2023-06-14T05:53:05;8.85;;;5.30;;
36653;SDS011;22650;49.350;20.898;2023-06-14T05:55:39;9.45;;;5.20;;
36653;SDS011;22650;49.350;20.898;2023-06-14T05:58:12;9.45;;;5.25;;
36653;SDS011;22650;49.350;20.898;2023-06-14T06:00:46;8.27;;;5.00;;
36653;SDS011;22650;49.350;20.898;2023-06-14T06:03:21;12.00;;;5.20;;
36653;SDS011;22650;49.350;20.898;2023-06-14T06:05:55;8.40;;;4.53;;
36653;SDS011;22650;49.350;20.898;2023-06-14T06:08:28;7.70;;;4.78;;
36653;SDS011;22650;49.350;20.898;2023-06-14T06:11:03;7.53;;;5.00;;
36653;SDS011;22650;49.350;20.898;2023-06-14T06:13:36;7.97;;;4.40;;
36653;SDS011;22650;49.350;20.898;2023-06-14T06:16:12;8.73;;;5.30;;
36653;SDS011;22650;49.350;20.898;2023-06-14T06:18:47;7.75;;;4.63;;
36653;SDS011;22650;49.350;20.898;2023-06-14T06:21:21;6.68;;;3.95;;
36653;SDS011;22650;49.350;20.898;2023-06-14T06:23:54;12.57;;;5.47;;
36653;SDS011;22650;49.350;20.898;2023-06-14T06:26:28;7.97;;;4.80;;
36653;SDS011;22650;49.350;20.898;2023-06-14T06:29:01;5.47;;;3.88;;
36653;SDS011;22650;49.350;20.898;2023-06-14T06:31:35;7.10;;;4.55;;
36653;SDS011;22650;49.350;20.898;2023-06-14T06:34:10;6.60;;;3.45;;
36653;SDS011;22650;49.350;20.898;2023-06-14T06:36:43;5.25;;;3.38;;
36653;SDS011;22650;49.350;20.898;2023-06-14T06:39:17;7.43;;;4.15;;
36653;SDS011;22650;49.350;20.898;2023-06-14T06:41:51;6.57;;;3.80;;
36653;SDS011;22650;49.350;20.898;2023-06-14T06:44:32;5.72;;;3.70;;
36653;SDS011;22650;49.350;20.898;2023-06-14T06:47:06;5.93;;;3.50;;
36653;SDS011;22650;49.350;20.898;2023-06-14T06:49:42;5.25;;;3.22;;
36653;SDS011;22650;49.350;20.898;2023-06-14T06:52:16;4.28;;;3.10;;
36653;SDS011;22650;49.350;20.898;2023-06-14T06:54:50;6.50;;;3.17;;
36653;SDS011;22650;49.350;20.898;2023-06-14T06:57:26;8.35;;;3.47;;
36653;SDS011;22650;49.350;20.898;2023-06-14T07:00:00;15.18;;;3.42;;
36653;SDS011;22650;49.350;20.898;2023-06-14T07:02:37;4.43;;;2.97;;
36653;SDS011;22650;49.350;20.898;2023-06-14T07:05:12;6.93;;;2.88;;
36653;SDS011;22650;49.350;20.898;2023-06-14T07:07:46;5.55;;;3.28;;
36653;SDS011;22650;49.350;20.898;2023-06-14T07:10:20;3.55;;;2.63;;
36653;SDS011;22650;49.350;20.898;2023-06-14T07:12:56;3.95;;;2.30;;
36653;SDS011;22650;49.350;20.898;2023-06-14T07:15:29;7.18;;;3.17;;
36653;SDS011;22650;49.350;20.898;2023-06-14T07:18:03;4.32;;;2.55;;
36653;SDS011;22650;49.350;20.898;2023-06-14T07:20:40;3.63;;;2.30;;
36653;SDS011;22650;49.350;20.898;2023-06-14T07:23:14;3.78;;;2.63;;
36653;SDS011;22650;49.350;20.898;2023-06-14T07:25:48;3.72;;;2.35;;
36653;SDS011;22650;49.350;20.898;2023-06-14T07:28:22;5.13;;;2.42;;
36653;SDS011;22650;49.350;20.898;2023-06-14T07:30:56;3.70;;;2.22;;
36653;SDS011;22650;49.350;20.898;2023-06-14T07:33:30;3.42;;;2.40;;
36653;SDS011;22650;49.350;20.898;2023-06-14T07:36:06;3.40;;;2.67;;
36653;SDS011;22650;49.350;20.898;2023-06-14T07:38:39;6.97;;;2.63;;
36653;SDS011;22650;49.350;20.898;2023-06-14T07:41:13;4.03;;;2.60;;
36653;SDS011;22650;49.350;20.898;2023-06-14T07:43:47;3.08;;;2.28;;
36653;SDS011;22650;49.350;20.898;2023-06-14T07:46:21;3.92;;;2.60;;
36653;SDS011;22650;49.350;20.898;2023-06-14T07:48:55;3.15;;;2.38;;
36653;SDS011;22650;49.350;20.898;2023-06-14T07:51:30;7.43;;;2.83;;
36653;SDS011;22650;49.350;20.898;2023-06-14T07:54:04;3.50;;;2.20;;
36653;SDS011;22650;49.350;20.898;2023-06-14T07:56:39;3.38;;;1.95;;
36653;SDS011;22650;49.350;20.898;2023-06-14T07:59:15;3.85;;;2.75;;
36653;SDS011;22650;49.350;20.898;2023-06-14T08:01:49;4.95;;;2.17;;
36653;SDS011;22650;49.350;20.898;2023-06-14T08:04:22;5.00;;;2.90;;
36653;SDS011;22650;49.350;20.898;2023-06-14T08:06:58;3.50;;;2.42;;
36653;SDS011;22650;49.350;20.898;2023-06-14T08:09:32;3.13;;;2.10;;
36653;SDS011;22650;49.350;20.898;2023-06-14T08:12:06;4.43;;;2.42;;
36653;SDS011;22650;49.350;20.898;2023-06-14T08:14:42;2.45;;;1.65;;
36653;SDS011;22650;49.350;20.898;2023-06-14T08:17:15;3.58;;;2.20;;
36653;SDS011;22650;49.350;20.898;2023-06-14T08:19:49;2.28;;;1.85;;
36653;SDS011;22650;49.350;20.898;2023-06-14T08:22:24;1.95;;;1.60;;
36653;SDS011;22650;49.350;20.898;2023-06-14T08:24:59;2.53;;;1.55;;
36653;SDS011;22650;49.350;20.898;2023-06-14T08:27:33;3.88;;;1.40;;
36653;SDS011;22650;49.350;20.898;2023-06-14T08:30:08;1.50;;;1.38;;
36653;SDS011;22650;49.350;20.898;2023-06-14T08:32:42;1.70;;;1.20;;
36653;SDS011;22650;49.350;20.898;2023-06-14T08:35:16;2.00;;;1.15;;
36653;SDS011;22650;49.350;20.898;2023-06-14T08:37:51;4.55;;;1.17;;
36653;SDS011;22650;49.350;20.898;2023-06-14T08:40:25;2.50;;;1.40;;
36653;SDS011;22650;49.350;20.898;2023-06-14T08:43:00;3.33;;;1.40;;
36653;SDS011;22650;49.350;20.898;2023-06-14T08:45:33;1.83;;;1.40;;
36653;SDS011;22650;49.350;20.898;2023-06-14T08:48:07;1.80;;;1.35;;
36653;SDS011;22650;49.350;20.898;2023-06-14T08:50:41;1.77;;;1.40;;
36653;SDS011;22650;49.350;20.898;2023-06-14T08:53:18;2.22;;;0.95;;
36653;SDS011;22650;49.350;20.898;2023-06-14T08:55:53;1.33;;;1.10;;
36653;SDS011;22650;49.350;20.898;2023-06-14T08:58:28;2.00;;;1.20;;
36653;SDS011;22650;49.350;20.898;2023-06-14T09:01:03;1.30;;;1.20;;
36653;SDS011;22650;49.350;20.898;2023-06-14T09:03:39;1.30;;;1.02;;
36653;SDS011;22650;49.350;20.898;2023-06-14T09:06:13;1.80;;;1.08;;
36653;SDS011;22650;49.350;20.898;2023-06-14T09:08:48;2.55;;;1.02;;
36653;SDS011;22650;49.350;20.898;2023-06-14T09:11:22;5.05;;;1.13;;
36653;SDS011;22650;49.350;20.898;2023-06-14T09:13:58;2.60;;;1.23;;
36653;SDS011;22650;49.350;20.898;2023-06-14T09:16:32;1.85;;;1.08;;
36653;SDS011;22650;49.350;20.898;2023-06-14T09:19:06;1.25;;;0.98;;
36653;SDS011;22650;49.350;20.898;2023-06-14T09:21:40;1.88;;;1.10;;
36653;SDS011;22650;49.350;20.898;2023-06-14T09:24:16;1.75;;;1.17;;
36653;SDS011;22650;49.350;20.898;2023-06-14T09:26:50;0.88;;;0.60;;
36653;SDS011;22650;49.350;20.898;2023-06-14T09:29:26;0.47;;;0.45;;
36653;SDS011;22650;49.350;20.898;2023-06-14T09:32:00;1.23;;;0.60;;
36653;SDS011;22650;49.350;20.898;2023-06-14T09:34:34;1.05;;;0.77;;
36653;SDS011;22650;49.350;20.898;2023-06-14T09:37:08;1.30;;;0.63;;
36653;SDS011;22650;49.350;20.898;2023-06-14T09:39:50;0.50;;;0.50;;
36653;SDS011;22650;49.350;20.898;2023-06-14T09:42:24;1.98;;;0.70;;
36653;SDS011;22650;49.350;20.898;2023-06-14T09:45:00;2.17;;;0.70;;
36653;SDS011;22650;49.350;20.898;2023-06-14T09:47:35;0.82;;;0.73;;
36653;SDS011;22650;49.350;20.898;2023-06-14T09:50:10;1.05;;;0.65;;
36653;SDS011;22650;49.350;20.898;2023-06-14T09:52:43;0.85;;;0.60;;
36653;SDS011;22650;49.350;20.898;2023-06-14T09:55:20;0.85;;;0.63;;
36653;SDS011;22650;49.350;20.898;2023-06-14T09:57:54;1.10;;;0.55;;
36653;SDS011;22650;49.350;20.898;2023-06-14T10:00:30;1.33;;;0.43;;
36653;SDS011;22650;49.350;20.898;2023-06-14T10:03:06;0.50;;;0.43;;
36653;SDS011;22650;49.350;20.898;2023-06-14T10:05:47;0.40;;;0.40;;
36653;SDS011;22650;49.350;20.898;2023-06-14T10:08:23;1.38;;;0.80;;
36653;SDS011;22650;49.350;20.898;2023-06-14T10:11:01;1.23;;;0.63;;
36653;SDS011;22650;49.350;20.898;2023-06-14T10:13:35;0.80;;;0.52;;
36653;SDS011;22650;49.350;20.898;2023-06-14T10:16:10;1.17;;;0.77;;
36653;SDS011;22650;49.350;20.898;2023-06-14T10:18:51;2.05;;;0.85;;
36653;SDS011;22650;49.350;20.898;2023-06-14T10:21:33;2.42;;;0.50;;
36653;SDS011;22650;49.350;20.898;2023-06-14T10:24:15;3.17;;;1.17;;
36653;SDS011;22650;49.350;20.898;2023-06-14T10:26:54;3.05;;;0.80;;
36653;SDS011;22650;49.350;20.898;2023-06-14T10:29:31;1.52;;;0.80;;
36653;SDS011;22650;49.350;20.898;2023-06-14T10:32:05;1.77;;;1.00;;
36653;SDS011;22650;49.350;20.898;2023-06-14T10:34:39;1.27;;;0.90;;
36653;SDS011;22650;49.350;20.898;2023-06-14T10:37:13;3.15;;;1.02;;
36653;SDS011;22650;49.350;20.898;2023-06-14T10:39:47;3.17;;;1.35;;
36653;SDS011;22650;49.350;20.898;2023-06-14T10:42:23;0.93;;;0.73;;
36653;SDS011;22650;49.350;20.898;2023-06-14T10:45:01;0.55;;;0.47;;
36653;SDS011;22650;49.350;20.898;2023-06-14T10:47:35;5.82;;;0.98;;
36653;SDS011;22650;49.350;20.898;2023-06-14T10:50:11;1.38;;;0.70;;
36653;SDS011;22650;49.350;20.898;2023-06-14T10:52:46;5.55;;;1.02;;
36653;SDS011;22650;49.350;20.898;2023-06-14T10:55:20;4.85;;;1.00;;
36653;SDS011;22650;49.350;20.898;2023-06-14T10:57:57;2.38;;;0.73;;
36653;SDS011;22650;49.350;20.898;2023-06-14T11:00:31;2.38;;;0.80;;
36653;SDS011;22650;49.350;20.898;2023-06-14T11:06:16;3.92;;;0.60;;
36653;SDS011;22650;49.350;20.898;2023-06-14T11:09:13;4.78;;;0.90;;
36653;SDS011;22650;49.350;20.898;2023-06-14T11:12:06;2.15;;;0.60;;
36653;SDS011;22650;49.350;20.898;2023-06-14T11:14:46;1.17;;;0.50;;
36653;SDS011;22650;49.350;20.898;2023-06-14T11:17:20;1.15;;;0.70;;
36653;SDS011;22650;49.350;20.898;2023-06-14T11:20:07;2.17;;;0.88;;
36653;SDS011;22650;49.350;20.898;2023-06-14T11:22:41;0.80;;;0.68;;
36653;SDS011;22650;49.350;20.898;2023-06-14T11:25:14;2.17;;;0.63;;
36653;SDS011;22650;49.350;20.898;2023-06-14T11:27:49;1.08;;;0.50;;
36653;SDS011;22650;49.350;20.898;2023-06-14T11:30:24;0.93;;;0.45;;
36653;SDS011;22650;49.350;20.898;2023-06-14T11:32:58;0.68;;;0.60;;
36653;SDS011;22650;49.350;20.898;2023-06-14T11:35:33;0.85;;;0.55;;
36653;SDS011;22650;49.350;20.898;2023-06-14T11:38:07;0.77;;;0.38;;
36653;SDS011;22650;49.350;20.898;2023-06-14T11:40:43;3.88;;;0.70;;
36653;SDS011;22650;49.350;20.898;2023-06-14T11:43:16;0.40;;;0.40;;
36653;SDS011;22650;49.350;20.898;2023-06-14T11:45:52;0.50;;;0.40;;
36653;SDS011;22650;49.350;20.898;2023-06-14T11:48:40;0.30;;;0.30;;
36653;SDS011;22650;49.350;20.898;2023-06-14T11:51:14;0.98;;;0.60;;
36653;SDS011;22650;49.350;20.898;2023-06-14T11:53:48;2.17;;;0.50;;
36653;SDS011;22650;49.350;20.898;2023-06-14T11:56:22;4.47;;;0.68;;
36653;SDS011;22650;49.350;20.898;2023-06-14T11:58:55;0.93;;;0.70;;
36653;SDS011;22650;49.350;20.898;2023-06-14T12:01:31;4.03;;;0.65;;
36653;SDS011;22650;49.350;20.898;2023-06-14T12:04:04;0.73;;;0.55;;
36653;SDS011;22650;49.350;20.898;2023-06-14T12:06:38;0.73;;;0.50;;
36653;SDS011;22650;49.350;20.898;2023-06-14T12:09:12;0.93;;;0.65;;
36653;SDS011;22650;49.350;20.898;2023-06-14T12:11:59;0.85;;;0.57;;
36653;SDS011;22650;49.350;20.898;2023-06-14T12:14:35;0.40;;;0.32;;
36653;SDS011;22650;49.350;20.898;2023-06-14T12:17:10;0.77;;;0.57;;
36653;SDS011;22650;49.350;20.898;2023-06-14T12:19:44;0.60;;;0.52;;
36653;SDS011;22650;49.350;20.898;2023-06-14T12:22:19;6.68;;;0.73;;
36653;SDS011;22650;49.350;20.898;2023-06-14T12:24:52;0.90;;;0.50;;
36653;SDS011;22650;49.350;20.898;2023-06-14T12:27:27;1.02;;;0.70;;
36653;SDS011;22650;49.350;20.898;2023-06-14T12:30:01;0.95;;;0.60;;
36653;SDS011;22650;49.350;20.898;2023-06-14T12:32:38;1.73;;;0.63;;
36653;SDS011;22650;49.350;20.898;2023-06-14T12:35:12;2.33;;;0.70;;
36653;SDS011;22650;49.350;20.898;2023-06-14T12:37:46;1.40;;;0.80;;
36653;SDS011;22650;49.350;20.898;2023-06-14T12:40:20;2.38;;;0.60;;
36653;SDS011;22650;49.350;20.898;2023-06-14T12:42:53;0.93;;;0.85;;
36653;SDS011;22650;49.350;20.898;2023-06-14T12:45:27;0.80;;;0.70;;
36653;SDS011;22650;49.350;20.898;2023-06-14T12:48:04;1.45;;;0.80;;
36653;SDS011;22650;49.350;20.898;2023-06-14T12:50:38;1.15;;;0.95;;
36653;SDS011;22650;49.350;20.898;2023-06-14T12:53:13;1.13;;;0.80;;
36653;SDS011;22650;49.350;20.898;2023-06-14T12:55:48;1.45;;;0.90;;
36653;SDS011;22650;49.350;20.898;2023-06-14T12:58:22;1.60;;;0.70;;
36653;SDS011;22650;49.350;20.898;2023-06-14T13:00:56;0.95;;;0.75;;
36653;SDS011;22650;49.350;20.898;2023-06-14T13:03:31;1.08;;;0.70;;
36653;SDS011;22650;49.350;20.898;2023-06-14T13:06:06;1.30;;;0.90;;
36653;SDS011;22650;49.350;20.898;2023-06-14T13:08:39;1.00;;;0.80;;
36653;SDS011;22650;49.350;20.898;2023-06-14T13:11:13;1.00;;;0.90;;
36653;SDS011;22650;49.350;20.898;2023-06-14T13:13:46;1.48;;;1.23;;
36653;SDS011;22650;49.350;20.898;2023-06-14T13:16:20;5.22;;;2.00;;
36653;SDS011;22650;49.350;20.898;2023-06-14T13:18:55;3.13;;;1.63;;
36653;SDS011;22650;49.350;20.898;2023-06-14T13:21:29;2.13;;;1.35;;
36653;SDS011;22650;49.350;20.898;2023-06-14T13:24:03;4.13;;;1.55;;
36653;SDS011;22650;49.350;20.898;2023-06-14T13:26:37;3.55;;;1.83;;
36653;SDS011;22650;49.350;20.898;2023-06-14T13:29:10;1.27;;;1.10;;
36653;SDS011;22650;49.350;20.898;2023-06-14T13:31:44;1.65;;;1.15;;
36653;SDS011;22650;49.350;20.898;2023-06-14T13:34:19;2.67;;;1.02;;
36653;SDS011;22650;49.350;20.898;2023-06-14T13:36:53;1.95;;;1.10;;
36653;SDS011;22650;49.350;20.898;2023-06-14T13:39:27;3.10;;;1.00;;
36653;SDS011;22650;49.350;20.898;2023-06-14T13:42:00;2.05;;;1.20;;
36653;SDS011;22650;49.350;20.898;2023-06-14T13:44:34;2.08;;;1.10;;
36653;SDS011;22650;49.350;20.898;2023-06-14T13:47:08;2.33;;;1.45;;
36653;SDS011;22650;49.350;20.898;2023-06-14T13:49:43;1.70;;;1.00;;
36653;SDS011;22650;49.350;20.898;2023-06-14T13:52:16;1.42;;;1.23;;
36653;SDS011;22650;49.350;20.898;2023-06-14T13:54:50;1.83;;;1.38;;
36653;SDS011;22650;49.350;20.898;2023-06-14T13:57:24;2.90;;;1.13;;
36653;SDS011;22650;49.350;20.898;2023-06-14T13:59:57;1.63;;;1.10;;
36653;SDS011;22650;49.350;20.898;2023-06-14T14:02:43;1.30;;;0.85;;
36653;SDS011;22650;49.350;20.898;2023-06-14T14:05:18;4.35;;;1.20;;
36653;SDS011;22650;49.350;20.898;2023-06-14T14:07:52;2.97;;;0.98;;
36653;SDS011;22650;49.350;20.898;2023-06-14T14:10:26;4.38;;;1.50;;
36653;SDS011;22650;49.350;20.898;2023-06-14T14:13:00;7.28;;;1.67;;
36653;SDS011;22650;49.350;20.898;2023-06-14T14:15:34;4.43;;;1.33;;
36653;SDS011;22650;49.350;20.898;2023-06-14T14:18:08;3.08;;;1.30;;
36653;SDS011;22650;49.350;20.898;2023-06-14T14:20:43;4.55;;;1.38;;
36653;SDS011;22650;49.350;20.898;2023-06-14T14:23:16;2.95;;;1.42;;
36653;SDS011;22650;49.350;20.898;2023-06-14T14:25:51;4.10;;;1.98;;
36653;SDS011;22650;49.350;20.898;2023-06-14T14:28:25;3.70;;;2.10;;
36653;SDS011;22650;49.350;20.898;2023-06-14T14:30:58;4.68;;;2.75;;
36653;SDS011;22650;49.350;20.898;2023-06-14T14:33:32;4.55;;;2.38;;
36653;SDS011;22650;49.350;20.898;2023-06-14T14:36:08;2.00;;;1.23;;
36653;SDS011;22650;49.350;20.898;2023-06-14T14:38:41;4.72;;;1.80;;
36653;SDS011;22650;49.350;20.898;2023-06-14T14:41:15;4.28;;;1.73;;
36653;SDS011;22650;49.350;20.898;2023-06-14T14:43:48;5.18;;;1.80;;
36653;SDS011;22650;49.350;20.898;2023-06-14T14:46:22;3.25;;;1.77;;
36653;SDS011;22650;49.350;20.898;2023-06-14T14:48:56;3.85;;;2.10;;
36653;SDS011;22650;49.350;20.898;2023-06-14T14:51:30;4.35;;;2.60;;
36653;SDS011;22650;49.350;20.898;2023-06-14T14:54:04;4.88;;;1.95;;
36653;SDS011;22650;49.350;20.898;2023-06-14T14:56:38;3.65;;;2.17;;
36653;SDS011;22650;49.350;20.898;2023-06-14T14:59:12;5.50;;;1.98;;
36653;SDS011;22650;49.350;20.898;2023-06-14T15:01:45;2.42;;;1.35;;
36653;SDS011;22650;49.350;20.898;2023-06-14T15:04:19;3.08;;;1.80;;
36653;SDS011;22650;49.350;20.898;2023-06-14T15:06:54;3.95;;;1.55;;
36653;SDS011;22650;49.350;20.898;2023-06-14T15:09:28;2.10;;;1.48;;
36653;SDS011;22650;49.350;20.898;2023-06-14T15:12:02;5.45;;;1.77;;
36653;SDS011;22650;49.350;20.898;2023-06-14T15:14:36;4.20;;;1.42;;
36653;SDS011;22650;49.350;20.898;2023-06-14T15:17:11;6.97;;;1.95;;
36653;SDS011;22650;49.350;20.898;2023-06-14T15:19:44;2.13;;;1.48;;